createdAt,value
2022-11-19T00:01:34.519Z,9.93
2022-11-19T00:04:02.519Z,9.47
2022-11-19T00:06:31.841Z,9.97
2022-11-19T00:08:59.844Z,9.50
2022-11-19T00:11:46.483Z,10.30
2022-11-19T00:14:18.640Z,9.77
2022-11-19T00:16:47.036Z,10.73
2022-11-19T00:19:18.400Z,11.20
2022-11-19T00:21:50.150Z,10.00
2022-11-19T00:24:18.318Z,10.37
2022-11-19T00:26:46.346Z,9.73
2022-11-19T00:29:18.053Z,9.30
2022-11-19T00:31:46.316Z,9.70
2022-11-19T00:34:14.482Z,9.57
2022-11-19T00:36:42.458Z,9.27
2022-11-19T00:39:11.824Z,9.43
2022-11-19T00:41:39.806Z,9.43
2022-11-19T00:44:07.917Z,9.00
2022-11-19T00:46:35.956Z,9.50
2022-11-19T00:49:04.242Z,9.67
2022-11-19T00:51:32.604Z,9.43
2022-11-19T00:54:00.668Z,9.00
2022-11-19T00:56:30.070Z,9.07
2022-11-19T00:58:58.092Z,10.10
2022-11-19T01:01:27.493Z,10.63
2022-11-19T01:03:56.243Z,9.90
2022-11-19T01:06:26.235Z,9.90
2022-11-19T01:08:55.213Z,9.20
2022-11-19T01:11:25.117Z,9.77
2022-11-19T01:13:54.511Z,9.37
2022-11-19T01:16:25.152Z,9.67
2022-11-19T01:18:54.016Z,8.87
2022-11-19T01:21:23.378Z,9.10
2022-11-19T01:23:51.973Z,9.77
2022-11-19T01:26:20.782Z,9.47
2022-11-19T01:28:49.068Z,9.53
2022-11-19T01:31:20.653Z,9.93
2022-11-19T01:33:49.206Z,10.30
2022-11-19T01:36:18.761Z,10.60
2022-11-19T01:38:50.710Z,10.37
2022-11-19T01:41:19.010Z,10.70
2022-11-19T01:43:49.031Z,9.77
2022-11-19T01:46:19.833Z,10.60
2022-11-19T01:48:52.656Z,10.23
2022-11-19T01:51:24.927Z,10.20
2022-11-19T01:53:54.744Z,11.03
2022-11-19T01:56:24.595Z,10.40
2022-11-19T01:58:58.455Z,10.50
2022-11-19T02:01:30.161Z,10.83
2022-11-19T02:04:01.615Z,10.33
2022-11-19T02:06:31.351Z,10.90
2022-11-19T02:09:00.523Z,11.37
2022-11-19T02:11:55.892Z,10.93
2022-11-19T02:14:51.887Z,10.83
2022-11-19T02:17:32.612Z,10.37
2022-11-19T02:20:37.075Z,10.70
2022-11-19T02:23:33.595Z,11.20
2022-11-19T02:26:26.674Z,10.83
2022-11-19T02:29:00.959Z,10.00
2022-11-19T02:31:33.564Z,10.93
2022-11-19T02:34:09.862Z,10.90
2022-11-19T02:36:43.206Z,10.53
2022-11-19T02:39:18.949Z,10.37
2022-11-19T02:41:54.472Z,10.83
2022-11-19T02:44:44.035Z,10.23
2022-11-19T02:47:15.855Z,10.90
2022-11-19T02:49:45.866Z,11.10
2022-11-19T02:52:15.895Z,11.67
2022-11-19T02:54:43.987Z,11.60
2022-11-19T02:57:13.451Z,11.70
2022-11-19T03:00:03.184Z,11.63
2022-11-19T03:02:54.808Z,11.27
2022-11-19T03:05:28.151Z,10.83
2022-11-19T03:07:56.377Z,12.17
2022-11-19T03:10:28.436Z,11.53
2022-11-19T03:13:27.756Z,11.67
2022-11-19T03:16:14.858Z,12.13
2022-11-19T03:18:50.612Z,10.90
2022-11-19T03:21:25.556Z,12.53
2022-11-19T03:23:58.523Z,11.57
2022-11-19T03:26:30.971Z,11.73
2022-11-19T03:29:01.829Z,11.37
2022-11-19T03:31:31.948Z,11.30
2022-11-19T03:34:05.313Z,11.00
2022-11-19T03:36:38.247Z,11.33
2022-11-19T03:39:11.023Z,11.97
2022-11-19T03:41:41.861Z,12.37
2022-11-19T03:44:15.760Z,11.50
2022-11-19T03:46:45.148Z,11.50
2022-11-19T03:49:16.505Z,12.87
2022-11-19T03:51:49.591Z,12.80
2022-11-19T03:54:17.861Z,12.47
2022-11-19T03:56:47.445Z,12.23
2022-11-19T03:59:15.904Z,13.03
2022-11-19T04:01:47.633Z,12.53
2022-11-19T04:04:34.646Z,11.53
2022-11-19T04:07:02.676Z,12.10
2022-11-19T04:09:30.724Z,12.17
2022-11-19T04:12:01.276Z,11.30
2022-11-19T04:14:29.311Z,12.60
2022-11-19T04:16:57.595Z,12.53
2022-11-19T04:19:27.176Z,13.20
2022-11-19T04:21:55.176Z,12.23
2022-11-19T04:24:23.225Z,12.87
2022-11-19T04:26:51.248Z,11.13
2022-11-19T04:29:19.545Z,12.80
2022-11-19T04:31:48.940Z,12.37
2022-11-19T04:34:16.957Z,12.47
2022-11-19T04:36:46.320Z,11.67
2022-11-19T04:39:14.328Z,12.03
2022-11-19T04:41:43.272Z,11.93
2022-11-19T04:44:11.328Z,12.13
2022-11-19T04:46:39.326Z,12.77
2022-11-19T04:49:07.380Z,11.03
2022-11-19T04:51:35.426Z,11.77
2022-11-19T04:54:04.976Z,11.03
2022-11-19T04:56:32.999Z,12.00
2022-11-19T04:59:00.979Z,11.33
2022-11-19T05:01:29.060Z,10.97
2022-11-19T05:03:57.093Z,11.53
2022-11-19T05:06:25.108Z,11.37
2022-11-19T05:08:53.150Z,11.70
2022-11-19T05:11:22.611Z,11.13
2022-11-19T05:13:50.601Z,11.93
2022-11-19T05:16:18.631Z,11.97
2022-11-19T05:18:46.701Z,12.93
2022-11-19T05:21:14.733Z,13.20
2022-11-19T05:23:42.717Z,12.37
2022-11-19T05:26:10.743Z,11.90
2022-11-19T05:28:40.357Z,11.73
2022-11-19T05:31:08.916Z,12.77
2022-11-19T05:33:36.939Z,13.80
2022-11-19T05:36:05.493Z,15.30
2022-11-19T05:38:33.489Z,14.20
2022-11-19T05:41:01.479Z,13.27
2022-11-19T05:43:29.696Z,13.60
2022-11-19T05:46:01.914Z,11.83
2022-11-19T05:48:30.102Z,11.20
2022-11-19T05:50:58.365Z,11.83
2022-11-19T05:53:27.294Z,12.33
2022-11-19T05:55:55.294Z,11.07
2022-11-19T05:58:23.403Z,11.57
2022-11-19T06:00:55.935Z,11.03
2022-11-19T06:03:25.376Z,11.07
2022-11-19T06:05:53.499Z,11.40
2022-11-19T06:08:21.490Z,11.73
2022-11-19T06:10:49.499Z,12.23
2022-11-19T06:13:17.583Z,12.57
2022-11-19T06:15:45.581Z,12.33
2022-11-19T06:18:13.576Z,11.73
2022-11-19T06:20:42.955Z,12.17
2022-11-19T06:23:10.974Z,11.97
2022-11-19T06:25:39.005Z,13.23
2022-11-19T06:28:07.397Z,13.63
2022-11-19T06:30:35.598Z,12.83
2022-11-19T06:33:03.593Z,13.93
2022-11-19T06:35:31.962Z,13.10
2022-11-19T06:38:01.295Z,12.40
2022-11-19T06:40:29.300Z,12.23
2022-11-19T06:42:57.275Z,12.07
2022-11-19T06:45:25.264Z,12.20
2022-11-19T06:47:53.251Z,12.33
2022-11-19T06:50:21.399Z,11.47
2022-11-19T06:52:49.398Z,10.53
2022-11-19T06:55:19.035Z,11.00
2022-11-19T06:57:47.092Z,10.70
2022-11-19T07:00:16.269Z,10.43
2022-11-19T07:02:44.275Z,10.60
2022-11-19T07:05:12.260Z,11.00
2022-11-19T07:07:40.344Z,11.13
2022-11-19T07:10:09.574Z,11.73
2022-11-19T07:12:38.929Z,13.23
2022-11-19T07:15:07.603Z,12.83
2022-11-19T07:17:35.806Z,12.60
2022-11-19T07:20:03.930Z,12.10
2022-11-19T07:22:31.946Z,13.17
2022-11-19T07:25:00.461Z,11.93
2022-11-19T07:27:28.453Z,12.30
2022-11-19T07:29:57.820Z,11.57
2022-11-19T07:32:25.815Z,12.70
2022-11-19T07:34:53.921Z,12.37
2022-11-19T07:37:21.937Z,12.80
2022-11-19T07:39:49.939Z,12.30
2022-11-19T07:42:35.514Z,11.70
2022-11-19T07:45:05.728Z,11.37
2022-11-19T07:47:34.821Z,12.17
2022-11-19T07:50:03.073Z,11.90
2022-11-19T07:52:33.810Z,11.47
2022-11-19T07:55:02.176Z,12.13
2022-11-19T07:57:30.704Z,11.40
2022-11-19T07:59:58.939Z,11.50
2022-11-19T08:02:28.348Z,11.63
2022-11-19T08:04:57.681Z,12.00
2022-11-19T08:07:25.748Z,11.13
2022-11-19T08:09:53.768Z,11.00
2022-11-19T08:12:21.851Z,11.40
2022-11-19T08:14:49.859Z,10.80
2022-11-19T08:17:35.372Z,11.37
2022-11-19T08:20:05.341Z,11.43
2022-11-19T08:22:33.368Z,10.87
2022-11-19T08:25:01.347Z,10.97
2022-11-19T08:27:29.347Z,11.43
2022-11-19T08:29:57.452Z,11.30
2022-11-19T08:32:25.549Z,11.30
2022-11-19T08:34:53.531Z,11.17
2022-11-19T08:37:22.900Z,11.47
2022-11-19T08:39:51.116Z,11.43
2022-11-19T08:42:36.378Z,11.00
2022-11-19T08:45:04.958Z,11.03
2022-11-19T08:47:32.949Z,11.80
2022-11-19T08:50:00.941Z,11.00
2022-11-19T08:52:30.365Z,11.40
2022-11-19T08:54:58.368Z,11.23
2022-11-19T08:57:26.323Z,11.87
2022-11-19T08:59:54.320Z,12.47
2022-11-19T09:02:22.412Z,12.13
2022-11-19T09:04:50.396Z,12.03
2022-11-19T09:07:18.452Z,12.23
2022-11-19T09:09:47.813Z,11.70
2022-11-19T09:12:17.040Z,14.43
2022-11-19T09:14:46.352Z,14.13
2022-11-19T09:17:14.454Z,14.50
2022-11-19T09:19:42.432Z,12.90
2022-11-19T09:22:10.419Z,13.63
2022-11-19T09:24:38.417Z,13.23
2022-11-19T09:27:07.795Z,13.30
2022-11-19T09:29:38.080Z,12.43
2022-11-19T09:32:06.214Z,12.87
2022-11-19T09:34:35.156Z,13.20
2022-11-19T09:37:03.203Z,13.70
2022-11-19T09:39:31.211Z,13.57
2022-11-19T09:42:13.581Z,21.33
2022-11-19T09:45:04.763Z,18.37
2022-11-19T09:47:57.087Z,19.63
2022-11-19T09:50:27.759Z,18.80
2022-11-19T09:52:59.295Z,16.83
2022-11-19T09:55:33.258Z,15.90
2022-11-19T09:58:02.777Z,15.10
2022-11-19T10:00:33.071Z,12.80
2022-11-19T10:03:07.249Z,16.67
2022-11-19T10:05:44.782Z,15.33
2022-11-19T10:08:29.687Z,15.20
2022-11-19T10:11:09.697Z,14.23
2022-11-19T10:13:50.230Z,13.90
2022-11-19T10:16:30.700Z,14.80
2022-11-19T10:19:08.559Z,14.07
2022-11-19T10:21:44.061Z,13.87
2022-11-19T10:24:18.250Z,13.73
2022-11-19T10:26:55.711Z,14.57
2022-11-19T10:29:29.071Z,12.97
2022-11-19T10:32:21.232Z,12.00
2022-11-19T10:34:53.957Z,11.43
2022-11-19T10:37:23.803Z,11.27
2022-11-19T10:39:56.113Z,11.13
2022-11-19T10:42:28.654Z,11.93
2022-11-19T10:45:01.548Z,12.03
2022-11-19T10:47:37.814Z,11.37
2022-11-19T10:50:11.132Z,11.50
2022-11-19T10:52:43.567Z,11.50
2022-11-19T10:55:19.819Z,12.77
2022-11-19T10:57:49.693Z,12.90
2022-11-19T11:00:19.082Z,12.17
2022-11-19T11:02:54.437Z,12.83
2022-11-19T11:05:22.418Z,13.03
2022-11-19T11:07:58.192Z,12.27
2022-11-19T11:10:38.447Z,11.93
2022-11-19T11:13:40.998Z,12.63
2022-11-19T11:16:12.223Z,12.47
2022-11-19T11:18:41.864Z,12.87
2022-11-19T11:21:13.708Z,12.03
2022-11-19T11:23:52.016Z,13.00
2022-11-19T11:26:23.099Z,12.47
2022-11-19T11:29:05.603Z,12.23
2022-11-19T11:31:41.079Z,13.37
2022-11-19T11:34:28.612Z,11.90
2022-11-19T11:36:57.569Z,11.73
2022-11-19T11:39:31.716Z,12.27
2022-11-19T11:42:06.220Z,12.73
2022-11-19T11:44:38.243Z,11.57
2022-11-19T11:47:14.013Z,12.77
2022-11-19T11:49:45.838Z,12.40
2022-11-19T11:52:23.652Z,12.33
2022-11-19T11:54:57.780Z,12.30
2022-11-19T11:57:28.208Z,13.20
2022-11-19T11:59:57.011Z,13.47
2022-11-19T12:02:30.297Z,12.90
2022-11-19T12:05:02.108Z,12.97
2022-11-19T12:08:03.499Z,13.90
2022-11-19T12:10:40.514Z,12.30
2022-11-19T12:13:37.405Z,12.47
2022-11-19T12:16:12.047Z,12.57
2022-11-19T12:18:50.463Z,13.53
2022-11-19T12:21:29.214Z,13.53
2022-11-19T12:24:19.047Z,13.53
2022-11-19T12:26:54.612Z,14.60
2022-11-19T12:29:29.078Z,12.80
2022-11-19T12:32:22.638Z,12.77
2022-11-19T12:35:15.095Z,12.83
2022-11-19T12:37:59.243Z,13.23
2022-11-19T12:40:41.801Z,13.93
2022-11-19T12:43:20.526Z,14.60
2022-11-19T12:46:02.744Z,14.23
2022-11-19T12:48:51.628Z,13.50
2022-11-19T12:51:32.881Z,13.57
2022-11-19T12:54:19.486Z,13.27
2022-11-19T12:57:01.712Z,11.93
2022-11-19T12:59:45.352Z,13.43
2022-11-19T13:02:19.553Z,13.23
2022-11-19T13:04:52.745Z,13.60
2022-11-19T13:07:24.002Z,13.57
2022-11-19T13:10:00.476Z,13.57
2022-11-19T13:12:35.021Z,14.33
2022-11-19T13:15:09.151Z,14.20
2022-11-19T13:17:42.200Z,13.30
2022-11-19T13:20:18.267Z,14.30
2022-11-19T13:22:48.272Z,14.60
2022-11-19T13:25:23.979Z,14.37
2022-11-19T13:27:54.881Z,14.77
2022-11-19T13:30:26.663Z,15.20
2022-11-19T13:33:03.437Z,14.70
2022-11-19T13:35:38.411Z,15.20
2022-11-19T13:38:17.648Z,13.67
2022-11-19T13:40:52.105Z,14.20
2022-11-19T13:43:40.129Z,15.37
2022-11-19T13:46:20.951Z,14.80
2022-11-19T13:48:55.728Z,15.57
2022-11-19T13:51:35.742Z,16.30
2022-11-19T13:54:05.933Z,15.43
2022-11-19T13:56:43.387Z,15.23
2022-11-19T13:59:26.895Z,15.40
2022-11-19T14:02:16.180Z,16.20
2022-11-19T14:05:13.782Z,16.60
2022-11-19T14:07:59.854Z,15.47
2022-11-19T14:10:34.083Z,15.40
2022-11-19T14:13:23.481Z,14.97
2022-11-19T14:16:23.668Z,15.73
2022-11-19T14:19:12.706Z,15.90
2022-11-19T14:22:06.295Z,15.33
2022-11-19T14:25:14.418Z,15.33
2022-11-19T14:27:43.735Z,15.50
2022-11-19T14:30:21.497Z,17.00
2022-11-19T14:32:52.383Z,17.03
2022-11-19T14:35:38.303Z,17.77
2022-11-19T14:38:37.173Z,30.07
2022-11-19T14:41:24.591Z,26.70
2022-11-19T14:44:13.114Z,23.93
2022-11-19T14:46:47.833Z,20.87
2022-11-19T14:49:35.255Z,19.07
2022-11-19T14:52:04.302Z,20.57
2022-11-19T14:54:38.237Z,18.97
2022-11-19T14:57:17.973Z,20.57
2022-11-19T14:59:51.930Z,25.10
2022-11-19T15:02:27.148Z,24.30
2022-11-19T15:05:00.541Z,20.17
2022-11-19T15:07:38.163Z,18.83
2022-11-19T15:10:30.214Z,19.23
2022-11-19T15:13:20.863Z,18.87
2022-11-19T15:15:51.918Z,19.33
2022-11-19T15:19:05.583Z,19.70
2022-11-19T15:22:01.910Z,18.03
2022-11-19T15:24:45.511Z,20.07
2022-11-19T15:27:21.150Z,21.40
2022-11-19T15:30:06.689Z,21.57
2022-11-19T15:33:10.441Z,22.43
2022-11-19T15:36:17.778Z,19.43
2022-11-19T15:38:51.722Z,20.80
2022-11-19T15:41:24.465Z,20.63
2022-11-19T15:43:57.386Z,19.03
2022-11-19T15:46:35.996Z,21.97
2022-11-19T15:49:12.264Z,19.90
2022-11-19T15:51:57.884Z,19.13
2022-11-19T15:54:29.673Z,19.33
2022-11-19T15:57:05.525Z,19.53
2022-11-19T15:59:37.075Z,19.07
2022-11-19T16:02:07.067Z,18.90
2022-11-19T16:04:38.970Z,19.83
2022-11-19T16:07:11.099Z,19.50
2022-11-19T16:09:39.603Z,18.93
2022-11-19T16:12:25.490Z,19.23
2022-11-19T16:15:11.862Z,18.53
2022-11-19T16:17:45.012Z,19.63
2022-11-19T16:20:21.925Z,19.50
2022-11-19T16:23:00.515Z,20.20
2022-11-19T16:25:34.172Z,19.57
2022-11-19T16:28:06.185Z,19.43
2022-11-19T16:30:46.615Z,18.33
2022-11-19T16:33:18.603Z,18.20
2022-11-19T16:35:51.383Z,18.87
2022-11-19T16:38:27.264Z,19.27
2022-11-19T16:41:13.537Z,21.90
2022-11-19T16:43:44.834Z,22.93
2022-11-19T16:46:16.692Z,22.57
2022-11-19T16:49:03.443Z,23.03
2022-11-19T16:51:40.848Z,22.07
2022-11-19T16:54:12.384Z,23.70
2022-11-19T16:56:44.104Z,24.50
2022-11-19T16:59:20.293Z,25.67
2022-11-19T17:01:53.992Z,26.07
2022-11-19T17:04:24.258Z,27.63
2022-11-19T17:06:52.493Z,27.00
2022-11-19T17:09:41.484Z,26.27
2022-11-19T17:12:25.123Z,25.27
2022-11-19T17:14:58.331Z,25.93
2022-11-19T17:17:41.556Z,26.40
2022-11-19T17:20:50.906Z,26.03
2022-11-19T17:23:20.629Z,23.93
2022-11-19T17:25:53.198Z,24.17
2022-11-19T17:28:25.935Z,24.70
2022-11-19T17:30:56.453Z,24.63
2022-11-19T17:33:24.990Z,24.30
2022-11-19T17:35:53.213Z,24.73
2022-11-19T17:38:23.838Z,24.77
2022-11-19T17:40:54.517Z,25.60
2022-11-19T17:43:43.297Z,26.37
2022-11-19T17:46:11.434Z,25.37
2022-11-19T17:48:42.068Z,26.13
2022-11-19T17:51:12.788Z,28.10
2022-11-19T17:53:41.087Z,29.00
2022-11-19T17:56:17.478Z,27.93
2022-11-19T17:58:45.532Z,26.17
2022-11-19T18:01:14.230Z,26.40
2022-11-19T18:03:42.277Z,27.50
2022-11-19T18:06:12.966Z,28.93
2022-11-19T18:08:42.090Z,28.47
2022-11-19T18:11:14.262Z,28.23
2022-11-19T18:13:43.232Z,28.83
2022-11-19T18:16:14.612Z,31.23
2022-11-19T18:18:42.685Z,29.97
2022-11-19T18:21:12.974Z,31.63
2022-11-19T18:23:41.833Z,29.40
2022-11-19T18:26:12.673Z,28.67
2022-11-19T18:28:43.736Z,28.10
2022-11-19T18:31:17.183Z,27.77
2022-11-19T18:33:45.348Z,28.73
2022-11-19T18:36:13.585Z,28.63
2022-11-19T18:38:42.376Z,28.17
2022-11-19T18:41:12.501Z,28.30
2022-11-19T18:43:57.790Z,31.50
2022-11-19T18:46:26.170Z,31.53
2022-11-19T18:48:54.655Z,34.10
2022-11-19T18:51:25.260Z,33.13
2022-11-19T18:53:53.273Z,34.80
2022-11-19T18:56:22.685Z,36.63
2022-11-19T18:58:50.784Z,38.17
2022-11-19T19:01:18.964Z,36.63
2022-11-19T19:03:47.211Z,36.17
2022-11-19T19:06:15.696Z,34.37
2022-11-19T19:08:43.669Z,34.57
2022-11-19T19:11:32.081Z,36.13
2022-11-19T19:14:01.795Z,36.90
2022-11-19T19:16:30.385Z,36.43
2022-11-19T19:18:59.936Z,36.23
2022-11-19T19:21:30.118Z,38.00
2022-11-19T19:24:01.120Z,37.77
2022-11-19T19:26:29.148Z,36.57
2022-11-19T19:28:57.137Z,36.60
2022-11-19T19:31:28.079Z,35.47
2022-11-19T19:33:56.367Z,35.10
2022-11-19T19:36:24.404Z,34.37
2022-11-19T19:38:52.451Z,33.47
2022-11-19T19:41:24.968Z,32.60
2022-11-19T19:43:54.392Z,32.17
2022-11-19T19:46:24.187Z,32.20
2022-11-19T19:48:57.384Z,32.67
2022-11-19T19:51:31.376Z,33.10
2022-11-19T19:53:59.660Z,31.43
2022-11-19T19:56:28.880Z,31.80
2022-11-19T19:58:58.172Z,33.37
2022-11-19T20:01:28.065Z,32.93
2022-11-19T20:04:02.096Z,33.67
2022-11-19T20:06:30.559Z,35.80
2022-11-19T20:09:05.617Z,35.43
2022-11-19T20:11:36.560Z,35.10
2022-11-19T20:14:05.676Z,36.97
2022-11-19T20:16:35.089Z,36.40
2022-11-19T20:19:05.732Z,35.60
2022-11-19T20:21:36.908Z,35.50
2022-11-19T20:24:11.934Z,36.57
2022-11-19T20:26:41.389Z,36.00
2022-11-19T20:29:11.579Z,35.43
2022-11-19T20:31:40.100Z,35.97
2022-11-19T20:34:11.980Z,37.00
2022-11-19T20:36:40.086Z,36.30
2022-11-19T20:39:08.248Z,36.43
2022-11-19T20:41:54.210Z,34.00
2022-11-19T20:44:23.081Z,33.87
2022-11-19T20:46:53.145Z,34.37
2022-11-19T20:49:24.589Z,37.67
2022-11-19T20:51:56.659Z,34.97
2022-11-19T20:54:25.575Z,34.60
2022-11-19T20:56:54.763Z,33.37
2022-11-19T20:59:23.729Z,33.50
2022-11-19T21:01:53.031Z,34.00
2022-11-19T21:04:24.032Z,33.60
2022-11-19T21:06:53.761Z,36.47
2022-11-19T21:09:22.100Z,40.87
2022-11-19T21:11:50.306Z,41.60
2022-11-19T21:14:18.532Z,40.47
2022-11-19T21:16:46.722Z,39.27
2022-11-19T21:19:17.745Z,37.60
2022-11-19T21:21:47.243Z,35.80
2022-11-19T21:24:15.653Z,37.10
2022-11-19T21:26:43.662Z,35.27
2022-11-19T21:29:12.542Z,35.30
2022-11-19T21:31:42.160Z,35.60
2022-11-19T21:34:12.372Z,34.10
2022-11-19T21:36:41.883Z,35.20
2022-11-19T21:39:12.566Z,35.37
2022-11-19T21:41:40.573Z,34.47
2022-11-19T21:44:08.718Z,36.50
2022-11-19T21:46:38.223Z,36.13
2022-11-19T21:49:06.393Z,37.23
2022-11-19T21:51:34.604Z,37.63
2022-11-19T21:54:02.573Z,38.97
2022-11-19T21:56:37.075Z,37.00
2022-11-19T21:59:07.191Z,36.50
2022-11-19T22:01:35.353Z,35.87
2022-11-19T22:04:04.815Z,37.00
2022-11-19T22:06:33.429Z,39.83
2022-11-19T22:09:01.531Z,41.20
2022-11-19T22:11:31.564Z,40.60
2022-11-19T22:14:02.117Z,41.37
2022-11-19T22:16:31.536Z,38.13
2022-11-19T22:18:59.741Z,37.93
2022-11-19T22:21:28.978Z,35.87
2022-11-19T22:23:57.491Z,38.20
2022-11-19T22:26:26.059Z,36.40
2022-11-19T22:28:55.610Z,37.20
2022-11-19T22:31:25.187Z,40.90
2022-11-19T22:33:54.111Z,42.87
2022-11-19T22:36:23.136Z,45.47
2022-11-19T22:38:52.007Z,48.07
2022-11-19T22:41:22.077Z,45.37
2022-11-19T22:43:50.828Z,45.33
2022-11-19T22:46:21.007Z,45.20
2022-11-19T22:48:49.211Z,43.03
2022-11-19T22:51:19.043Z,41.33
2022-11-19T22:53:47.405Z,38.77
2022-11-19T22:56:17.136Z,37.03
2022-11-19T22:58:45.117Z,36.67
2022-11-19T23:01:18.513Z,37.00
2022-11-19T23:03:48.391Z,37.83
2022-11-19T23:06:19.146Z,35.77
2022-11-19T23:08:47.185Z,34.63
2022-11-19T23:11:16.442Z,35.33
2022-11-19T23:13:45.086Z,33.87
2022-11-19T23:16:14.711Z,34.63
2022-11-19T23:18:47.057Z,36.23
2022-11-19T23:21:18.443Z,35.93
2022-11-19T23:23:47.233Z,36.27
2022-11-19T23:26:19.979Z,36.57
2022-11-19T23:28:48.209Z,37.27
2022-11-19T23:31:18.211Z,39.50
2022-11-19T23:33:47.042Z,42.10
2022-11-19T23:36:21.817Z,45.57
2022-11-19T23:38:50.240Z,45.60
2022-11-19T23:41:20.120Z,47.53
2022-11-19T23:43:49.312Z,46.37
2022-11-19T23:46:18.916Z,48.07
2022-11-19T23:48:48.744Z,46.70
2022-11-19T23:51:19.702Z,44.87
2022-11-19T23:53:49.120Z,43.97
2022-11-19T23:56:18.232Z,44.57
2022-11-19T23:58:46.330Z,44.30
